sensor_id;sensor_type;location;lat;lon;timestamp;pressure;altitude;pressure_sealevel;temperature;humidity
46886;BME280;32622;48.202;11.326;2023-04-23T00:01:10;1011.31;;;17.53;27.46
46886;BME280;32622;48.202;11.326;2023-04-23T00:03:14;1011.39;;;16.96;27.20
46886;BME280;32622;48.202;11.326;2023-04-23T00:05:20;1011.35;;;17.17;27.51
46886;BME280;32622;48.202;11.326;2023-04-23T00:07:25;1011.37;;;17.01;27.90
46886;BME280;32622;48.202;11.326;2023-04-23T00:09:30;1011.34;;;17.00;28.21
46886;BME280;32622;48.202;11.326;2023-04-23T00:11:35;1011.35;;;16.90;27.63
46886;BME280;32622;48.202;11.326;2023-04-23T00:13:39;1011.29;;;16.92;27.74
46886;BME280;32622;48.202;11.326;2023-04-23T00:15:43;1011.30;;;16.79;27.31
46886;BME280;32622;48.202;11.326;2023-04-23T00:17:46;1011.23;;;17.15;26.92
46886;BME280;32622;48.202;11.326;2023-04-23T00:19:50;1011.24;;;17.04;27.28
46886;BME280;32622;48.202;11.326;2023-04-23T00:21:53;1011.34;;;16.53;27.13
46886;BME280;32622;48.202;11.326;2023-04-23T00:23:57;1011.23;;;16.95;27.25
46886;BME280;32622;48.202;11.326;2023-04-23T00:26:01;1011.18;;;17.02;27.30
46886;BME280;32622;48.202;11.326;2023-04-23T00:28:04;1011.22;;;16.91;26.67
46886;BME280;32622;48.202;11.326;2023-04-23T00:30:08;1011.18;;;16.89;26.75
46886;BME280;32622;48.202;11.326;2023-04-23T00:32:11;1010.94;;;17.66;26.90
46886;BME280;32622;48.202;11.326;2023-04-23T00:34:15;1010.97;;;17.44;26.68
46886;BME280;32622;48.202;11.326;2023-04-23T00:36:18;1011.00;;;17.37;26.95
46886;BME280;32622;48.202;11.326;2023-04-23T00:38:22;1010.99;;;17.53;27.02
46886;BME280;32622;48.202;11.326;2023-04-23T00:40:25;1011.05;;;17.01;26.95
46886;BME280;32622;48.202;11.326;2023-04-23T00:42:29;1011.08;;;17.03;26.93
46886;BME280;32622;48.202;11.326;2023-04-23T00:44:32;1011.09;;;16.98;27.04
46886;BME280;32622;48.202;11.326;2023-04-23T00:46:36;1011.10;;;16.79;27.07
46886;BME280;32622;48.202;11.326;2023-04-23T00:48:39;1011.09;;;16.80;27.61
46886;BME280;32622;48.202;11.326;2023-04-23T00:50:43;1011.08;;;16.74;27.49
46886;BME280;32622;48.202;11.326;2023-04-23T00:52:46;1011.01;;;16.76;27.16
46886;BME280;32622;48.202;11.326;2023-04-23T00:54:50;1010.94;;;17.00;26.95
46886;BME280;32622;48.202;11.326;2023-04-23T00:56:54;1010.94;;;16.88;27.69
46886;BME280;32622;48.202;11.326;2023-04-23T00:58:58;1011.01;;;16.56;27.80
46886;BME280;32622;48.202;11.326;2023-04-23T01:01:01;1011.07;;;16.50;28.01
46886;BME280;32622;48.202;11.326;2023-04-23T01:03:05;1011.11;;;16.59;27.66
46886;BME280;32622;48.202;11.326;2023-04-23T01:05:09;1011.15;;;16.14;28.59
46886;BME280;32622;48.202;11.326;2023-04-23T01:07:12;1010.95;;;16.60;27.97
46886;BME280;32622;48.202;11.326;2023-04-23T01:09:16;1010.99;;;16.56;28.58
46886;BME280;32622;48.202;11.326;2023-04-23T01:11:19;1010.96;;;16.66;28.38
46886;BME280;32622;48.202;11.326;2023-04-23T01:13:23;1010.93;;;16.56;28.72
46886;BME280;32622;48.202;11.326;2023-04-23T01:15:27;1011.20;;;15.69;28.84
46886;BME280;32622;48.202;11.326;2023-04-23T01:17:30;1011.03;;;16.80;28.46
46886;BME280;32622;48.202;11.326;2023-04-23T01:19:34;1011.09;;;16.35;28.72
46886;BME280;32622;48.202;11.326;2023-04-23T01:21:39;1010.99;;;16.87;28.63
46886;BME280;32622;48.202;11.326;2023-04-23T01:23:42;1011.08;;;16.53;28.47
46886;BME280;32622;48.202;11.326;2023-04-23T01:25:46;1011.20;;;16.25;29.25
46886;BME280;32622;48.202;11.326;2023-04-23T01:27:49;1011.21;;;16.28;28.74
46886;BME280;32622;48.202;11.326;2023-04-23T01:29:52;1011.08;;;16.68;28.36
46886;BME280;32622;48.202;11.326;2023-04-23T01:31:57;1011.23;;;15.58;29.62
46886;BME280;32622;48.202;11.326;2023-04-23T01:34:02;1011.15;;;15.88;28.85
46886;BME280;32622;48.202;11.326;2023-04-23T01:36:05;1011.08;;;15.80;29.14
46886;BME280;32622;48.202;11.326;2023-04-23T01:38:10;1011.05;;;15.86;28.91
46886;BME280;32622;48.202;11.326;2023-04-23T01:40:15;1010.96;;;16.39;28.55
46886;BME280;32622;48.202;11.326;2023-04-23T01:42:19;1011.06;;;16.24;28.98
46886;BME280;32622;48.202;11.326;2023-04-23T01:44:23;1011.18;;;15.84;29.44
46886;BME280;32622;48.202;11.326;2023-04-23T01:46:27;1011.18;;;15.95;29.53
46886;BME280;32622;48.202;11.326;2023-04-23T01:48:31;1011.22;;;15.94;29.31
46886;BME280;32622;48.202;11.326;2023-04-23T01:50:35;1011.22;;;16.03;29.77
46886;BME280;32622;48.202;11.326;2023-04-23T01:52:39;1011.25;;;16.11;29.67
46886;BME280;32622;48.202;11.326;2023-04-23T01:54:42;1011.25;;;16.03;29.86
46886;BME280;32622;48.202;11.326;2023-04-23T01:56:46;1011.26;;;15.88;29.90
46886;BME280;32622;48.202;11.326;2023-04-23T01:58:50;1011.19;;;15.97;30.05
46886;BME280;32622;48.202;11.326;2023-04-23T02:00:53;1011.21;;;15.70;30.15
46886;BME280;32622;48.202;11.326;2023-04-23T02:02:56;1011.12;;;16.24;30.11
46886;BME280;32622;48.202;11.326;2023-04-23T02:05:00;1011.14;;;16.27;30.19
46886;BME280;32622;48.202;11.326;2023-04-23T02:07:04;1011.12;;;16.24;30.26
46886;BME280;32622;48.202;11.326;2023-04-23T02:09:08;1011.12;;;16.25;30.00
46886;BME280;32622;48.202;11.326;2023-04-23T02:11:11;1011.04;;;16.69;30.09
46886;BME280;32622;48.202;11.326;2023-04-23T02:13:14;1011.09;;;16.61;29.78
46886;BME280;32622;48.202;11.326;2023-04-23T02:15:18;1011.12;;;16.52;29.91
46886;BME280;32622;48.202;11.326;2023-04-23T02:17:22;1011.18;;;16.35;30.51
46886;BME280;32622;48.202;11.326;2023-04-23T02:19:26;1011.14;;;16.48;30.41
46886;BME280;32622;48.202;11.326;2023-04-23T02:21:29;1011.22;;;16.31;30.42
46886;BME280;32622;48.202;11.326;2023-04-23T02:23:33;1011.30;;;15.92;31.10
46886;BME280;32622;48.202;11.326;2023-04-23T02:25:36;1011.34;;;15.81;31.28
46886;BME280;32622;48.202;11.326;2023-04-23T02:27:40;1011.32;;;15.97;31.01
46886;BME280;32622;48.202;11.326;2023-04-23T02:29:43;1011.30;;;16.18;30.80
46886;BME280;32622;48.202;11.326;2023-04-23T02:31:47;1011.31;;;16.17;30.81
46886;BME280;32622;48.202;11.326;2023-04-23T02:33:50;1011.34;;;15.77;31.13
46886;BME280;32622;48.202;11.326;2023-04-23T02:35:54;1011.39;;;15.45;31.29
46886;BME280;32622;48.202;11.326;2023-04-23T02:37:57;1011.46;;;15.31;31.36
46886;BME280;32622;48.202;11.326;2023-04-23T02:40:01;1011.52;;;15.03;31.54
46886;BME280;32622;48.202;11.326;2023-04-23T02:42:05;1011.49;;;15.24;32.32
46886;BME280;32622;48.202;11.326;2023-04-23T02:44:08;1011.54;;;15.04;32.17
46886;BME280;32622;48.202;11.326;2023-04-23T02:46:11;1011.45;;;15.67;32.18
46886;BME280;32622;48.202;11.326;2023-04-23T02:48:15;1011.48;;;15.44;32.17
46886;BME280;32622;48.202;11.326;2023-04-23T02:50:18;1011.52;;;15.26;32.47
46886;BME280;32622;48.202;11.326;2023-04-23T02:52:21;1011.59;;;14.92;32.50
46886;BME280;32622;48.202;11.326;2023-04-23T02:54:25;1011.67;;;14.56;32.59
46886;BME280;32622;48.202;11.326;2023-04-23T02:56:28;1011.56;;;14.96;32.01
46886;BME280;32622;48.202;11.326;2023-04-23T02:58:32;1011.60;;;15.00;31.96
46886;BME280;32622;48.202;11.326;2023-04-23T03:00:35;1011.49;;;15.70;32.07
46886;BME280;32622;48.202;11.326;2023-04-23T03:02:39;1011.65;;;15.17;31.74
46886;BME280;32622;48.202;11.326;2023-04-23T03:04:42;1011.43;;;16.01;31.18
46886;BME280;32622;48.202;11.326;2023-04-23T03:06:46;1011.51;;;15.61;31.33
46886;BME280;32622;48.202;11.326;2023-04-23T03:08:49;1011.55;;;15.53;31.40
46886;BME280;32622;48.202;11.326;2023-04-23T03:10:53;1011.54;;;15.57;31.33
46886;BME280;32622;48.202;11.326;2023-04-23T03:12:56;1011.55;;;15.53;31.45
46886;BME280;32622;48.202;11.326;2023-04-23T03:15:00;1011.49;;;15.84;31.64
46886;BME280;32622;48.202;11.326;2023-04-23T03:17:03;1011.53;;;15.85;31.35
46886;BME280;32622;48.202;11.326;2023-04-23T03:19:07;1011.66;;;15.22;31.75
46886;BME280;32622;48.202;11.326;2023-04-23T03:21:10;1011.69;;;15.19;31.63
46886;BME280;32622;48.202;11.326;2023-04-23T03:23:13;1011.58;;;15.64;31.45
46886;BME280;32622;48.202;11.326;2023-04-23T03:25:17;1011.61;;;15.46;31.36
46886;BME280;32622;48.202;11.326;2023-04-23T03:27:20;1011.49;;;16.01;31.25
46886;BME280;32622;48.202;11.326;2023-04-23T03:29:23;1011.53;;;15.92;31.50
46886;BME280;32622;48.202;11.326;2023-04-23T03:31:27;1011.62;;;15.53;32.03
46886;BME280;32622;48.202;11.326;2023-04-23T03:33:31;1011.67;;;15.51;31.57
46886;BME280;32622;48.202;11.326;2023-04-23T03:35:34;1011.76;;;15.19;31.73
46886;BME280;32622;48.202;11.326;2023-04-23T03:37:37;1011.83;;;15.12;31.45
46886;BME280;32622;48.202;11.326;2023-04-23T03:39:41;1011.75;;;15.42;31.44
46886;BME280;32622;48.202;11.326;2023-04-23T03:41:44;1011.79;;;15.35;31.70
46886;BME280;32622;48.202;11.326;2023-04-23T03:43:47;1011.88;;;14.95;31.83
46886;BME280;32622;48.202;11.326;2023-04-23T03:45:50;1011.90;;;15.02;32.21
46886;BME280;32622;48.202;11.326;2023-04-23T03:47:54;1011.83;;;15.24;31.77
46886;BME280;32622;48.202;11.326;2023-04-23T03:49:57;1011.86;;;15.19;31.95
46886;BME280;32622;48.202;11.326;2023-04-23T03:52:00;1011.94;;;15.00;32.13
46886;BME280;32622;48.202;11.326;2023-04-23T03:54:04;1011.94;;;15.05;32.02
46886;BME280;32622;48.202;11.326;2023-04-23T03:56:07;1011.90;;;15.32;31.98
46886;BME280;32622;48.202;11.326;2023-04-23T03:58:11;1012.03;;;15.04;32.23
46886;BME280;32622;48.202;11.326;2023-04-23T04:00:14;1012.11;;;14.81;33.07
46886;BME280;32622;48.202;11.326;2023-04-23T04:02:18;1012.21;;;14.36;33.58
46886;BME280;32622;48.202;11.326;2023-04-23T04:04:22;1012.34;;;13.95;34.24
46886;BME280;32622;48.202;11.326;2023-04-23T04:06:25;1012.20;;;14.68;33.54
46886;BME280;32622;48.202;11.326;2023-04-23T04:08:29;1012.28;;;14.44;32.97
46886;BME280;32622;48.202;11.326;2023-04-23T04:10:32;1012.39;;;13.91;33.58
46886;BME280;32622;48.202;11.326;2023-04-23T04:12:35;1012.29;;;14.52;33.34
46886;BME280;32622;48.202;11.326;2023-04-23T04:14:39;1012.42;;;13.86;33.73
46886;BME280;32622;48.202;11.326;2023-04-23T04:16:42;1012.33;;;14.46;33.53
46886;BME280;32622;48.202;11.326;2023-04-23T04:18:46;1012.43;;;13.90;33.59
46886;BME280;32622;48.202;11.326;2023-04-23T04:20:49;1012.38;;;14.37;33.81
46886;BME280;32622;48.202;11.326;2023-04-23T04:22:53;1012.43;;;14.09;33.79
46886;BME280;32622;48.202;11.326;2023-04-23T04:24:56;1012.36;;;14.42;33.68
46886;BME280;32622;48.202;11.326;2023-04-23T04:26:59;1012.34;;;14.48;33.43
46886;BME280;32622;48.202;11.326;2023-04-23T04:29:03;1012.42;;;14.21;33.34
46886;BME280;32622;48.202;11.326;2023-04-23T04:31:06;1012.35;;;14.54;33.03
46886;BME280;32622;48.202;11.326;2023-04-23T04:33:09;1012.33;;;14.62;32.96
46886;BME280;32622;48.202;11.326;2023-04-23T04:35:13;1012.42;;;14.35;33.35
46886;BME280;32622;48.202;11.326;2023-04-23T04:37:16;1012.31;;;15.09;32.62
46886;BME280;32622;48.202;11.326;2023-04-23T04:39:19;1012.50;;;14.13;33.60
46886;BME280;32622;48.202;11.326;2023-04-23T04:41:23;1012.64;;;13.59;34.14
46886;BME280;32622;48.202;11.326;2023-04-23T04:43:27;1012.43;;;14.61;32.89
46886;BME280;32622;48.202;11.326;2023-04-23T04:45:30;1012.48;;;14.29;33.07
46886;BME280;32622;48.202;11.326;2023-04-23T04:47:34;1012.61;;;13.75;33.92
46886;BME280;32622;48.202;11.326;2023-04-23T04:49:37;1012.62;;;13.93;33.93
46886;BME280;32622;48.202;11.326;2023-04-23T04:51:41;1012.57;;;14.03;33.20
46886;BME280;32622;48.202;11.326;2023-04-23T04:53:44;1012.57;;;14.16;33.40
46886;BME280;32622;48.202;11.326;2023-04-23T04:55:47;1012.59;;;14.21;32.75
46886;BME280;32622;48.202;11.326;2023-04-23T04:57:51;1012.68;;;13.96;33.77
46886;BME280;32622;48.202;11.326;2023-04-23T04:59:54;1012.69;;;13.87;33.60
46886;BME280;32622;48.202;11.326;2023-04-23T05:01:57;1012.74;;;13.79;34.07
46886;BME280;32622;48.202;11.326;2023-04-23T05:04:01;1012.79;;;13.70;33.80
46886;BME280;32622;48.202;11.326;2023-04-23T05:06:05;1012.79;;;13.69;34.10
46886;BME280;32622;48.202;11.326;2023-04-23T05:08:08;1012.80;;;13.80;33.78
46886;BME280;32622;48.202;11.326;2023-04-23T05:10:12;1012.81;;;13.76;33.70
46886;BME280;32622;48.202;11.326;2023-04-23T05:12:16;1012.85;;;13.58;34.18
46886;BME280;32622;48.202;11.326;2023-04-23T05:14:20;1013.00;;;13.32;34.73
46886;BME280;32622;48.202;11.326;2023-04-23T05:16:23;1012.83;;;14.30;34.42
46886;BME280;32622;48.202;11.326;2023-04-23T05:18:27;1012.96;;;13.64;34.60
46886;BME280;32622;48.202;11.326;2023-04-23T05:20:30;1012.97;;;13.81;34.26
46886;BME280;32622;48.202;11.326;2023-04-23T05:22:33;1013.17;;;13.20;35.02
46886;BME280;32622;48.202;11.326;2023-04-23T05:24:37;1013.05;;;13.73;34.54
46886;BME280;32622;48.202;11.326;2023-04-23T05:26:40;1013.00;;;13.85;34.56
46886;BME280;32622;48.202;11.326;2023-04-23T05:28:44;1012.98;;;13.91;34.21
46886;BME280;32622;48.202;11.326;2023-04-23T05:30:47;1012.97;;;13.79;34.38
46886;BME280;32622;48.202;11.326;2023-04-23T05:32:51;1012.93;;;14.04;34.20
46886;BME280;32622;48.202;11.326;2023-04-23T05:34:55;1013.12;;;13.34;35.18
46886;BME280;32622;48.202;11.326;2023-04-23T05:36:58;1013.04;;;13.43;34.72
46886;BME280;32622;48.202;11.326;2023-04-23T05:39:02;1013.21;;;12.85;35.44
46886;BME280;32622;48.202;11.326;2023-04-23T05:41:05;1013.30;;;12.56;36.24
46886;BME280;32622;48.202;11.326;2023-04-23T05:43:09;1013.59;;;11.24;37.52
46886;BME280;32622;48.202;11.326;2023-04-23T05:45:12;1013.29;;;12.78;36.45
46886;BME280;32622;48.202;11.326;2023-04-23T05:47:15;1013.17;;;13.48;35.84
46886;BME280;32622;48.202;11.326;2023-04-23T05:49:19;1013.28;;;13.01;35.82
46886;BME280;32622;48.202;11.326;2023-04-23T05:51:22;1013.27;;;12.99;36.01
46886;BME280;32622;48.202;11.326;2023-04-23T05:53:27;1013.18;;;13.42;35.75
46886;BME280;32622;48.202;11.326;2023-04-23T05:55:30;1013.22;;;13.12;35.53
46886;BME280;32622;48.202;11.326;2023-04-23T05:57:34;1013.18;;;13.17;35.48
46886;BME280;32622;48.202;11.326;2023-04-23T05:59:38;1013.13;;;13.26;35.63
46886;BME280;32622;48.202;11.326;2023-04-23T06:01:41;1012.98;;;13.73;35.27
46886;BME280;32622;48.202;11.326;2023-04-23T06:03:45;1013.14;;;13.27;35.21
46886;BME280;32622;48.202;11.326;2023-04-23T06:05:48;1012.94;;;13.87;35.12
46886;BME280;32622;48.202;11.326;2023-04-23T06:07:52;1012.95;;;13.83;34.72
46886;BME280;32622;48.202;11.326;2023-04-23T06:09:56;1012.99;;;13.74;34.72
46886;BME280;32622;48.202;11.326;2023-04-23T06:11:59;1013.19;;;13.26;35.55
46886;BME280;32622;48.202;11.326;2023-04-23T06:14:03;1013.25;;;13.15;36.28
46886;BME280;32622;48.202;11.326;2023-04-23T06:16:07;1013.20;;;13.13;36.86
46886;BME280;32622;48.202;11.326;2023-04-23T06:18:11;1013.20;;;13.28;36.40
46886;BME280;32622;48.202;11.326;2023-04-23T06:20:14;1013.15;;;13.42;36.05
46886;BME280;32622;48.202;11.326;2023-04-23T06:22:17;1013.31;;;12.90;36.09
46886;BME280;32622;48.202;11.326;2023-04-23T06:24:21;1013.36;;;12.55;37.24
46886;BME280;32622;48.202;11.326;2023-04-23T06:26:24;1013.39;;;12.51;37.07
46886;BME280;32622;48.202;11.326;2023-04-23T06:28:27;1013.27;;;13.06;36.48
46886;BME280;32622;48.202;11.326;2023-04-23T06:30:31;1013.19;;;13.43;36.23
46886;BME280;32622;48.202;11.326;2023-04-23T06:32:34;1013.19;;;13.44;35.94
46886;BME280;32622;48.202;11.326;2023-04-23T06:34:39;1013.38;;;12.92;36.87
46886;BME280;32622;48.202;11.326;2023-04-23T06:36:42;1013.24;;;13.42;36.79
46886;BME280;32622;48.202;11.326;2023-04-23T06:38:46;1013.14;;;13.49;36.00
46886;BME280;32622;48.202;11.326;2023-04-23T06:40:50;1012.94;;;14.39;35.58
46886;BME280;32622;48.202;11.326;2023-04-23T06:42:53;1013.07;;;13.84;35.43
46886;BME280;32622;48.202;11.326;2023-04-23T06:44:57;1013.05;;;13.98;35.79
46886;BME280;32622;48.202;11.326;2023-04-23T06:47:00;1013.02;;;14.07;35.61
46886;BME280;32622;48.202;11.326;2023-04-23T06:49:03;1013.13;;;13.54;35.48
46886;BME280;32622;48.202;11.326;2023-04-23T06:51:07;1012.98;;;14.09;35.79
46886;BME280;32622;48.202;11.326;2023-04-23T06:53:10;1012.96;;;14.14;35.39
46886;BME280;32622;48.202;11.326;2023-04-23T06:55:13;1012.95;;;14.06;35.14
46886;BME280;32622;48.202;11.326;2023-04-23T06:57:17;1012.98;;;13.87;34.96
46886;BME280;32622;48.202;11.326;2023-04-23T06:59:20;1012.92;;;14.02;35.11
46886;BME280;32622;48.202;11.326;2023-04-23T07:01:24;1012.83;;;14.41;34.89
46886;BME280;32622;48.202;11.326;2023-04-23T07:03:27;1012.81;;;14.41;34.79
46886;BME280;32622;48.202;11.326;2023-04-23T07:05:31;1012.89;;;14.05;34.98
46886;BME280;32622;48.202;11.326;2023-04-23T07:07:34;1012.84;;;14.48;35.17
46886;BME280;32622;48.202;11.326;2023-04-23T07:09:37;1012.88;;;14.33;34.91
46886;BME280;32622;48.202;11.326;2023-04-23T07:11:41;1012.85;;;14.57;34.70
46886;BME280;32622;48.202;11.326;2023-04-23T07:13:44;1012.89;;;14.25;35.06
46886;BME280;32622;48.202;11.326;2023-04-23T07:15:48;1012.90;;;14.14;34.75
46886;BME280;32622;48.202;11.326;2023-04-23T07:17:51;1012.85;;;14.40;34.54
46886;BME280;32622;48.202;11.326;2023-04-23T07:19:54;1012.92;;;14.22;35.06
46886;BME280;32622;48.202;11.326;2023-04-23T07:21:57;1012.97;;;13.93;35.08
46886;BME280;32622;48.202;11.326;2023-04-23T07:24:01;1012.79;;;14.77;34.57
46886;BME280;32622;48.202;11.326;2023-04-23T07:26:04;1012.83;;;14.45;34.59
46886;BME280;32622;48.202;11.326;2023-04-23T07:28:07;1012.81;;;14.46;34.72
46886;BME280;32622;48.202;11.326;2023-04-23T07:30:11;1012.81;;;14.49;34.37
46886;BME280;32622;48.202;11.326;2023-04-23T07:32:15;1012.74;;;14.87;34.07
46886;BME280;32622;48.202;11.326;2023-04-23T07:34:18;1012.72;;;14.86;34.00
46886;BME280;32622;48.202;11.326;2023-04-23T07:36:22;1012.71;;;14.94;34.00
46886;BME280;32622;48.202;11.326;2023-04-23T07:38:25;1012.64;;;15.20;33.81
46886;BME280;32622;48.202;11.326;2023-04-23T07:40:29;1012.68;;;15.14;33.76
46886;BME280;32622;48.202;11.326;2023-04-23T07:42:32;1012.73;;;15.08;34.34
46886;BME280;32622;48.202;11.326;2023-04-23T07:44:35;1012.77;;;14.75;34.25
46886;BME280;32622;48.202;11.326;2023-04-23T07:46:39;1012.93;;;13.98;35.01
46886;BME280;32622;48.202;11.326;2023-04-23T07:48:42;1012.79;;;14.78;34.18
46886;BME280;32622;48.202;11.326;2023-04-23T07:50:45;1012.76;;;14.85;34.37
46886;BME280;32622;48.202;11.326;2023-04-23T07:52:48;1012.72;;;15.12;33.83
46886;BME280;32622;48.202;11.326;2023-04-23T07:54:52;1012.75;;;14.94;34.14
46886;BME280;32622;48.202;11.326;2023-04-23T07:56:55;1012.80;;;14.76;34.03
46886;BME280;32622;48.202;11.326;2023-04-23T07:58:59;1012.86;;;14.58;34.19
46886;BME280;32622;48.202;11.326;2023-04-23T08:01:02;1012.82;;;14.75;34.18
46886;BME280;32622;48.202;11.326;2023-04-23T08:03:06;1012.93;;;14.31;34.62
46886;BME280;32622;48.202;11.326;2023-04-23T08:05:09;1012.85;;;14.40;34.78
46886;BME280;32622;48.202;11.326;2023-04-23T08:07:12;1012.82;;;14.53;34.83
46886;BME280;32622;48.202;11.326;2023-04-23T08:09:16;1012.85;;;14.33;34.47
46886;BME280;32622;48.202;11.326;2023-04-23T08:11:19;1012.78;;;14.49;34.45
46886;BME280;32622;48.202;11.326;2023-04-23T08:13:22;1012.73;;;14.51;34.28
46886;BME280;32622;48.202;11.326;2023-04-23T08:15:26;1012.65;;;14.59;34.46
46886;BME280;32622;48.202;11.326;2023-04-23T08:17:29;1012.62;;;14.48;34.78
46886;BME280;32622;48.202;11.326;2023-04-23T08:19:33;1012.55;;;14.64;34.52
46886;BME280;32622;48.202;11.326;2023-04-23T08:21:36;1012.66;;;14.06;35.07
46886;BME280;32622;48.202;11.326;2023-04-23T08:23:39;1012.52;;;14.78;34.69
46886;BME280;32622;48.202;11.326;2023-04-23T08:25:42;1012.52;;;14.71;35.07
46886;BME280;32622;48.202;11.326;2023-04-23T08:27:45;1012.44;;;15.05;34.74
46886;BME280;32622;48.202;11.326;2023-04-23T08:29:49;1012.52;;;14.75;35.08
46886;BME280;32622;48.202;11.326;2023-04-23T08:31:52;1012.50;;;14.76;34.79
46886;BME280;32622;48.202;11.326;2023-04-23T08:33:55;1012.41;;;15.15;34.78
46886;BME280;32622;48.202;11.326;2023-04-23T08:35:59;1012.37;;;15.44;34.27
46886;BME280;32622;48.202;11.326;2023-04-23T08:38:02;1012.37;;;15.40;34.00
46886;BME280;32622;48.202;11.326;2023-04-23T08:40:06;1012.36;;;15.41;33.88
46886;BME280;32622;48.202;11.326;2023-04-23T08:42:14;1012.40;;;15.30;33.92
46886;BME280;32622;48.202;11.326;2023-04-23T08:44:22;1012.36;;;15.43;32.86
46886;BME280;32622;48.202;11.326;2023-04-23T08:46:26;1012.30;;;15.85;33.21
46886;BME280;32622;48.202;11.326;2023-04-23T08:48:33;1012.37;;;15.42;33.38
46886;BME280;32622;48.202;11.326;2023-04-23T08:50:37;1012.35;;;15.28;33.36
46886;BME280;32622;48.202;11.326;2023-04-23T08:52:46;1012.38;;;15.00;33.74
46886;BME280;32622;48.202;11.326;2023-04-23T08:54:53;1012.23;;;15.38;33.82
46886;BME280;32622;48.202;11.326;2023-04-23T08:56:57;1012.44;;;14.49;33.80
46886;BME280;32622;48.202;11.326;2023-04-23T08:59:00;1012.33;;;14.89;34.17
46886;BME280;32622;48.202;11.326;2023-04-23T09:01:03;1012.27;;;15.01;34.01
46886;BME280;32622;48.202;11.326;2023-04-23T09:03:07;1012.27;;;14.89;33.60
46886;BME280;32622;48.202;11.326;2023-04-23T09:05:10;1012.36;;;14.50;34.53
46886;BME280;32622;48.202;11.326;2023-04-23T09:07:12;1012.21;;;15.31;34.25
46886;BME280;32622;48.202;11.326;2023-04-23T09:09:16;1012.10;;;15.54;34.22
46886;BME280;32622;48.202;11.326;2023-04-23T09:11:20;1012.07;;;15.32;34.05
46886;BME280;32622;48.202;11.326;2023-04-23T09:13:25;1012.01;;;15.64;33.72
46886;BME280;32622;48.202;11.326;2023-04-23T09:15:28;1012.09;;;15.25;33.73
46886;BME280;32622;48.202;11.326;2023-04-23T09:17:31;1012.04;;;15.62;32.40
46886;BME280;32622;48.202;11.326;2023-04-23T09:19:35;1011.89;;;16.32;34.10
46886;BME280;32622;48.202;11.326;2023-04-23T09:21:38;1011.77;;;17.09;32.66
46886;BME280;32622;48.202;11.326;2023-04-23T09:23:42;1011.79;;;16.94;32.52
46886;BME280;32622;48.202;11.326;2023-04-23T09:25:45;1011.70;;;17.15;30.92
46886;BME280;32622;48.202;11.326;2023-04-23T09:27:49;1011.69;;;16.91;30.29
46886;BME280;32622;48.202;11.326;2023-04-23T09:29:53;1011.67;;;16.99;30.00
46886;BME280;32622;48.202;11.326;2023-04-23T09:32:04;1011.68;;;16.99;31.40
46886;BME280;32622;48.202;11.326;2023-04-23T09:34:07;1011.58;;;17.43;31.46
46886;BME280;32622;48.202;11.326;2023-04-23T09:36:10;1011.44;;;17.81;31.36
46886;BME280;32622;48.202;11.326;2023-04-23T09:38:18;1011.68;;;16.56;30.74
46886;BME280;32622;48.202;11.326;2023-04-23T09:40:27;1011.78;;;16.04;30.69
46886;BME280;32622;48.202;11.326;2023-04-23T09:42:32;1011.55;;;16.98;30.51
46886;BME280;32622;48.202;11.326;2023-04-23T09:44:35;1011.29;;;17.85;30.25
46886;BME280;32622;48.202;11.326;2023-04-23T09:46:40;1011.29;;;17.72;30.34
46886;BME280;32622;48.202;11.326;2023-04-23T09:48:44;1011.39;;;17.38;30.66
46886;BME280;32622;48.202;11.326;2023-04-23T09:50:47;1011.14;;;18.34;30.10
46886;BME280;32622;48.202;11.326;2023-04-23T09:52:53;1011.30;;;17.61;29.19
46886;BME280;32622;48.202;11.326;2023-04-23T09:54:57;1011.15;;;18.07;27.34
46886;BME280;32622;48.202;11.326;2023-04-23T09:57:01;1011.05;;;18.75;28.42
46886;BME280;32622;48.202;11.326;2023-04-23T09:59:19;1011.12;;;18.24;28.82
46886;BME280;32622;48.202;11.326;2023-04-23T10:01:27;1011.05;;;18.33;28.65
46886;BME280;32622;48.202;11.326;2023-04-23T10:03:31;1010.86;;;19.01;28.55
46886;BME280;32622;48.202;11.326;2023-04-23T10:05:38;1010.80;;;18.98;28.23
46886;BME280;32622;48.202;11.326;2023-04-23T10:07:43;1010.78;;;18.93;28.60
46886;BME280;32622;48.202;11.326;2023-04-23T10:09:47;1010.85;;;18.63;28.28
46886;BME280;32622;48.202;11.326;2023-04-23T10:11:52;1010.77;;;19.04;27.76
46886;BME280;32622;48.202;11.326;2023-04-23T10:13:55;1010.83;;;18.69;28.34
46886;BME280;32622;48.202;11.326;2023-04-23T10:16:01;1010.83;;;18.59;27.57
46886;BME280;32622;48.202;11.326;2023-04-23T10:18:07;1010.98;;;17.77;28.61
46886;BME280;32622;48.202;11.326;2023-04-23T10:20:10;1010.91;;;18.00;28.32
46886;BME280;32622;48.202;11.326;2023-04-23T10:22:15;1010.98;;;17.79;28.60
46886;BME280;32622;48.202;11.326;2023-04-23T10:24:22;1011.06;;;17.38;28.71
46886;BME280;32622;48.202;11.326;2023-04-23T10:26:26;1011.06;;;17.52;28.88
46886;BME280;32622;48.202;11.326;2023-04-23T10:28:32;1010.97;;;17.91;29.10
46886;BME280;32622;48.202;11.326;2023-04-23T10:30:36;1011.30;;;16.65;29.40
46886;BME280;32622;48.202;11.326;2023-04-23T10:32:39;1011.53;;;15.45;31.17
46886;BME280;32622;48.202;11.326;2023-04-23T10:34:43;1011.38;;;15.94;31.01
46886;BME280;32622;48.202;11.326;2023-04-23T10:36:47;1011.27;;;16.52;29.79
46886;BME280;32622;48.202;11.326;2023-04-23T10:38:52;1011.01;;;17.44;29.97
46886;BME280;32622;48.202;11.326;2023-04-23T10:40:57;1011.27;;;16.18;29.93
46886;BME280;32622;48.202;11.326;2023-04-23T10:43:03;1011.26;;;16.03;30.38
46886;BME280;32622;48.202;11.326;2023-04-23T10:45:12;1011.03;;;17.16;29.60
46886;BME280;32622;48.202;11.326;2023-04-23T10:47:16;1011.43;;;15.01;32.18
46886;BME280;32622;48.202;11.326;2023-04-23T10:49:22;1011.31;;;15.43;32.61
46886;BME280;32622;48.202;11.326;2023-04-23T10:51:32;1011.30;;;15.20;32.32
46886;BME280;32622;48.202;11.326;2023-04-23T10:53:36;1011.13;;;15.91;31.76
46886;BME280;32622;48.202;11.326;2023-04-23T10:55:41;1010.88;;;16.86;32.73